Time;durP1;ratioP1;P1;durP2;ratioP2;P2;SDS_P1;SDS_P2;PMS_P1;PMS_P2;Temp;Humidity;BMP_temperature;BMP_pressure;BME280_temperature;BME280_humidity;BME280_pressure;Samples;Min_cycle;Max_cycle;Signal;HPM_P1;HPM_P2
2021/11/14 00:07:21;;;;;;;;;;;;;;;;;;;;;
2021/11/14 00:22:38;;;;;;;;;;;;;;;;;;;;;
2021/11/14 00:30:41;;;;;;;;;;;;;;;;;;;;;
2021/11/14 00:34:36;;;;;;;;;;;;;;;;;;;;;
2021/11/14 00:50:10;;;;;;;;;;;;;;;;;;;;;
2021/11/14 00:53:09;;;;;;;;;;;;;;;;;;;;;
2021/11/14 01:04:07;;;;;;;;;;;;;;;;;;;;;
2021/11/14 01:07:27;;;;;;;;;;;;;;;;;;;;;
2021/11/14 01:14:42;;;;;;;;;;;;;;;;;;;;;
2021/11/14 01:18:08;;;;;;;;;;;;;;;;;;;;;
2021/11/14 01:37:11;;;;;;;;;;;;;;;;;;;;;
2021/11/14 02:04:07;;;;;;;;;;;;;;;;;;;;;
2021/11/14 02:23:16;;;;;;;;;;;;;;;;;;;;;
2021/11/14 02:27:04;;;;;;;;;;;;;;;;;;;;;
2021/11/14 02:31:02;;;;;;;;;;;;;;;;;;;;;
2021/11/14 03:12:54;;;;;;;;;;;;;;;;;;;;;
2021/11/14 03:16:44;;;;;;;;;;;;;;;;;;;;;
2021/11/14 03:24:54;;;;;;;;;;;;;;;;;;;;;
2021/11/14 03:28:51;;;;;;;;;;;;;;;;;;;;;
2021/11/14 03:36:10;;;;;;;;;;;;;;;;;;;;;
2021/11/14 06:13:24;;;;;;;;;;;;;;;;;;;;;
2021/11/14 06:17:23;;;;;;;;;;;;;;;;;;;;;
2021/11/14 06:29:54;;;;;;;;;;;;;;;;;;;;;
2021/11/14 06:37:50;;;;;;;18.80;8.30;;;;;;;6.45;100.00;92260.06;5839510;24;20104;-93
2021/11/14 06:40:41;;;;;;;20.67;8.77;;;;;;;6.46;100.00;92285.03;5895225;24;20062;-94
2021/11/14 06:46:21;;;;;;;18.63;8.57;;;;;;;6.34;100.00;92268.94;6132148;23;20040;-93
2021/11/14 06:49:24;;;;;;;17.88;8.05;;;;;;;6.44;100.00;92284.53;6163044;23;20131;-92
2021/11/14 06:52:16;;;;;;;18.65;8.38;;;;;;;6.37;100.00;92268.44;6260357;22;20026;-92
2021/11/14 06:55:16;;;;;;;34.35;15.05;;;;;;;6.37;100.00;92278.84;6269038;22;20018;-92
2021/11/14 06:57:48;;;;;;;28.33;11.45;;;;;;;6.47;100.00;92283.22;6292763;22;20080;-94
2021/11/14 07:00:26;;;;;;;23.38;9.20;;;;;;;6.42;100.00;92276.22;6286837;22;20450;-93
2021/11/14 07:03:14;;;;;;;20.73;9.38;;;;;;;6.50;100.00;92285.28;6339026;22;20093;-94
2021/11/14 07:06:38;;;;;;;;;;;;;;;;;;;;;
2021/11/14 07:17:22;;;;;;;;;;;;;;;;;;;;;
2021/11/14 07:21:04;;;;;;;;;;;;;;;;;;;;;
2021/11/14 08:01:50;;;;;;;;;;;;;;;;;;;;;
2021/11/14 08:08:43;;;;;;;;;;;;;;;;;;;;;
2021/11/14 08:16:11;;;;;;;21.63;9.25;;;;;;;6.57;100.00;92324.78;6175548;23;20537;-92
2021/11/14 08:24:15;;;;;;;;;;;;;;;;;;;;;
2021/11/14 08:27:08;;;;;;;;;;;;;;;;;;;;;
2021/11/14 08:41:26;;;;;;;;;;;;;;;;;;;;;
2021/11/14 08:44:29;;;;;;;;;;;;;;;;;;;;;
2021/11/14 08:47:37;;;;;;;12.55;5.93;;;;;;;6.38;98.83;92360.97;6279073;22;20019;-94
2021/11/14 08:50:51;;;;;;;17.00;7.28;;;;;;;6.33;99.97;92349.81;6246405;22;20102;-94
2021/11/14 08:53:58;;;;;;;;;;;;;;;;;;;;;
2021/11/14 08:57:19;;;;;;;;;;;;;;;;;;;;;
2021/11/14 09:00:59;;;;;;;;;;;;;;;;;;;;;
2021/11/14 09:04:00;;;;;;;11.90;5.25;;;;;;;6.37;99.04;92367.22;6292761;22;20086;-93
2021/11/14 09:07:26;;;;;;;;;;;;;;;;;;;;;
2021/11/14 09:10:44;;;;;;;11.48;3.60;;;;;;;6.25;96.50;92361.50;6284628;22;20011;-94
2021/11/14 09:13:33;;;;;;;6.68;3.10;;;;;;;6.16;96.47;92369.06;6319348;22;20042;-94
2021/11/14 09:16:32;;;;;;;8.10;3.53;;;;;;;6.14;97.71;92383.34;6264004;22;20472;-95
2021/11/14 09:19:50;;;;;;;;;;;;;;;;;;;;;
2021/11/14 09:27:16;;;;;;;;;;;;;;;;;;;;;
2021/11/14 09:33:59;;;;;;;;;;;;;;;;;;;;;
2021/11/14 09:49:00;;;;;;;;;;;;;;;;;;;;;
2021/11/14 09:56:53;;;;;;;;;;;;;;;;;;;;;
2021/11/14 10:00:46;;;;;;;;;;;;;;;;;;;;;
2021/11/14 10:22:34;;;;;;;9.95;3.03;;;;;;;5.69;99.24;92429.00;6096145;23;20732;-95
2021/11/14 10:29:39;;;;;;;;;;;;;;;;;;;;;
2021/11/14 10:48:30;;;;;;;;;;;;;;;;;;;;;
2021/11/14 10:59:54;;;;;;;7.03;1.83;;;;;;;6.15;93.35;92421.31;6042095;23;20020;-95
2021/11/14 11:03:33;;;;;;;;;;;;;;;;;;;;;
2021/11/14 11:15:05;;;;;;;4.13;1.67;;;;;;;5.96;89.32;92411.41;5933356;24;20091;-93
2021/11/14 11:26:06;;;;;;;;;;;;;;;;;;;;;
2021/11/14 11:44:58;;;;;;;;;;;;;;;;;;;;;
2021/11/14 12:07:55;;;;;;;1.65;1.00;;;;;;;5.78;88.53;92420.44;6079328;23;20022;-94
2021/11/14 12:15:16;;;;;;;;;;;;;;;;;;;;;
2021/11/14 12:22:43;;;;;;;4.05;1.83;;;;;;;5.69;87.56;92416.81;6201542;22;20022;-94
2021/11/14 12:43:54;;;;;;;;;;;;;;;;;;;;;
2021/11/14 12:47:23;;;;;;;;;;;;;;;;;;;;;
2021/11/14 12:54:43;;;;;;;4.25;2.47;;;;;;;6.09;88.80;92437.94;6283531;22;20122;-93
2021/11/14 12:58:09;;;;;;;3.58;1.95;;;;;;;6.07;88.03;92440.00;6337123;22;20090;-92
2021/11/14 13:05:09;;;;;;;3.97;2.20;;;;;;;6.03;87.83;92440.53;6327982;22;20757;-77
2021/11/14 13:07:35;;;;;;;3.97;2.15;;;;;;;6.05;87.99;92432.47;6246538;22;20771;-77
2021/11/14 13:10:15;;;;;;;2.67;1.50;;;;;;;6.10;89.34;92439.47;6275529;22;20042;-78
2021/11/14 13:12:46;;;;;;;6.07;3.00;;;;;;;6.16;88.79;92441.06;6211246;23;20095;-77
2021/11/14 13:15:13;;;;;;;10.65;3.08;;;;;;;6.18;88.65;92441.56;6213815;23;20096;-78
2021/11/14 13:17:51;;;;;;;3.60;1.25;;;;;;;6.17;87.38;92445.19;6188969;23;20008;-77
2021/11/14 13:20:20;;;;;;;3.42;1.83;;;;;;;6.10;89.70;92450.66;6244886;23;20016;-77
2021/11/14 13:22:54;;;;;;;4.32;2.10;;;;;;;6.09;91.35;92464.69;6243904;23;20010;-76
2021/11/14 13:25:30;;;;;;;2.05;1.25;;;;;;;6.10;90.93;92460.28;6244103;23;20042;-78
2021/11/14 13:27:58;;;;;;;3.55;1.40;;;;;;;6.10;91.00;92462.88;6244471;23;20008;-77
2021/11/14 13:30:27;;;;;;;2.17;1.23;;;;;;;6.07;91.08;92460.81;6219690;23;20000;-77
2021/11/14 13:32:54;;;;;;;1.88;1.15;;;;;;;5.98;90.63;92461.31;6247861;23;20012;-77
2021/11/14 13:35:20;;;;;;;1.63;1.00;;;;;;;5.81;90.88;92460.75;6220865;23;20000;-76
2021/11/14 13:37:48;;;;;;;5.78;2.35;;;;;;;5.85;92.34;92464.38;6217679;23;20020;-76
2021/11/14 13:40:18;;;;;;;25.88;10.80;;;;;;;5.91;91.56;92463.34;6216324;23;20023;-77
2021/11/14 13:42:46;;;;;;;6.57;2.70;;;;;;;5.90;91.41;92471.38;6243877;23;20000;-76
2021/11/14 13:45:16;;;;;;;104.60;36.05;;;;;;;5.86;91.62;92471.13;6246529;23;20012;-77
2021/11/14 13:47:46;;;;;;;18.58;6.82;;;;;;;5.93;93.51;92471.66;6193443;23;20103;-75
2021/11/14 13:50:24;;;;;;;13.32;7.78;;;;;;;6.01;93.65;92476.41;6242337;23;20114;-77
2021/11/14 13:52:54;;;;;;;6.80;3.55;;;;;;;6.06;94.43;92475.63;6215206;23;20062;-77
2021/11/14 13:55:21;;;;;;;9.45;5.00;;;;;;;6.13;95.13;92477.97;6191394;23;20198;-77
2021/11/14 13:57:49;;;;;;;9.40;5.32;;;;;;;6.16;94.53;92480.81;6239805;23;20004;-77
2021/11/14 14:00:19;;;;;;;12.43;7.82;;;;;;;6.23;93.74;92477.97;6215457;23;20106;-77
2021/11/14 14:02:45;;;;;;;8.57;3.40;;;;;;;6.20;94.33;92481.09;6217468;23;20083;-77
2021/11/14 14:05:12;;;;;;;7.65;3.30;;;;;;;6.18;94.41;92477.97;6241644;23;20012;-77
2021/11/14 14:07:41;;;;;;;11.13;4.35;;;;;;;6.19;94.33;92474.31;6217762;23;20016;-77
2021/11/14 14:10:15;;;;;;;11.05;3.83;;;;;;;6.26;95.29;92474.88;6192383;23;20063;-77
2021/11/14 14:12:51;;;;;;;7.30;2.60;;;;;;;6.29;95.30;92476.16;6216508;23;20012;-77
2021/11/14 14:15:22;;;;;;;6.95;3.78;;;;;;;6.32;95.49;92473.03;6218431;23;20062;-77
2021/11/14 14:17:54;;;;;;;8.13;4.43;;;;;;;6.31;94.82;92472.25;6190818;23;20039;-77
2021/11/14 14:20:21;;;;;;;6.47;2.80;;;;;;;6.29;94.33;92476.16;6245361;23;20012;-77
2021/11/14 14:22:54;;;;;;;14.43;7.28;;;;;;;6.15;95.29;92481.88;6218482;23;20003;-76
2021/11/14 14:25:21;;;;;;;10.70;4.95;;;;;;;6.15;95.64;92479.28;6242534;23;20015;-78
2021/11/14 14:27:54;;;;;;;22.17;10.25;;;;;;;6.33;92.89;92480.59;6216522;23;20409;-77
2021/11/14 14:30:21;;;;;;;11.15;5.97;;;;;;;6.22;94.10;92484.22;6244297;23;20098;-78
2021/11/14 14:32:56;;;;;;;6.40;2.78;;;;;;;6.13;93.48;92488.38;6219761;23;20011;-80
2021/11/14 14:35:27;;;;;;;9.18;4.40;;;;;;;6.09;93.75;92480.28;6221666;23;20012;-79
2021/11/14 14:38:02;;;;;;;7.90;2.20;;;;;;;6.04;92.59;92483.66;6180437;23;20433;-77
2021/11/14 14:40:33;;;;;;;42.25;14.93;;;;;;;5.96;92.17;92491.19;6180818;23;20400;-78
2021/11/14 14:42:59;;;;;;;47.60;15.70;;;;;;;5.98;91.98;92489.88;6181299;23;20012;-77
2021/11/14 14:45:31;;;;;;;10.80;5.45;;;;;;;5.69;94.11;92499.13;6156823;23;20067;-77
2021/11/14 14:48:12;;;;;;;14.40;7.22;;;;;;;5.77;94.62;92485.66;6182680;23;20009;-77
2021/11/14 14:50:55;;;;;;;8.88;4.28;;;;;;;5.72;94.97;92491.63;6181826;23;20100;-77
2021/11/14 14:53:25;;;;;;;;;;;;;;;5.68;94.77;92505.38;6184014;23;20012;-77
2021/11/14 14:55:50;;;;;;;3.60;1.60;;;;;;;5.60;95.13;92507.41;6184168;23;19916;-77
2021/11/14 14:58:16;;;;;;;4.97;2.30;;;;;;;5.53;93.84;92509.47;6182233;23;20005;-77
2021/11/14 15:00:42;;;;;;;4.60;2.20;;;;;;;5.64;94.81;92511.06;6180106;23;20021;-77
2021/11/14 15:03:08;;;;;;;15.77;4.25;;;;;;;5.57;92.91;92515.72;6208398;23;20036;-77
2021/11/14 15:05:39;;;;;;;12.55;5.03;;;;;;;5.59;94.17;92518.84;6207605;23;20020;-78
2021/11/14 15:08:06;;;;;;;17.50;7.85;;;;;;;5.60;93.91;92520.41;6181390;23;20448;-77
2021/11/14 15:10:32;;;;;;;11.32;5.70;;;;;;;5.64;94.57;92529.25;6182393;23;20004;-77
2021/11/14 15:13:00;;;;;;;3.55;1.95;;;;;;;5.54;94.63;92526.63;6181804;23;20390;-77
2021/11/14 15:15:31;;;;;;;5.38;2.10;;;;;;;5.38;94.51;92532.75;6186315;23;20008;-78
2021/11/14 15:18:07;;;;;;;3.67;1.80;;;;;;;5.44;95.05;92536.97;6188958;23;20286;-78
2021/11/14 15:20:35;;;;;;;3.10;1.70;;;;;;;5.51;95.03;92537.50;6186448;23;20013;-78
2021/11/14 15:23:09;;;;;;;13.15;4.88;;;;;;;5.57;95.85;92535.72;6185542;23;20305;-79
2021/11/14 15:25:38;;;;;;;13.85;5.15;;;;;;;5.58;95.72;92538.06;6185846;23;20092;-78
2021/11/14 15:28:14;;;;;;;22.88;8.73;;;;;;;5.59;95.39;92547.41;6184463;23;20012;-78
2021/11/14 15:30:42;;;;;;;15.75;6.90;;;;;;;5.67;95.83;92546.13;6184341;23;20005;-78
2021/11/14 15:33:10;;;;;;;11.93;5.57;;;;;;;5.69;95.97;92549.25;6185898;23;20004;-80
2021/11/14 15:35:35;;;;;;;12.60;5.88;;;;;;;5.67;96.14;92547.97;6185576;23;20013;-77
2021/11/14 15:38:02;;;;;;;8.02;4.38;;;;;;;5.67;96.43;92560.94;6183156;23;20023;-77
2021/11/14 15:40:28;;;;;;;10.88;5.38;;;;;;;5.67;96.38;92558.34;6184566;23;20432;-77
2021/11/14 15:42:55;;;;;;;10.32;4.50;;;;;;;5.64;96.39;92565.59;6183624;23;20020;-80
2021/11/14 15:45:23;;;;;;;12.50;6.05;;;;;;;5.69;96.10;92566.66;6183553;23;20292;-80
2021/11/14 15:47:50;;;;;;;14.63;6.15;;;;;;;5.64;96.07;92568.22;6182206;23;20017;-79
2021/11/14 15:50:19;;;;;;;13.73;6.30;;;;;;;5.61;96.66;92568.72;6185243;23;20009;-79
2021/11/14 15:52:45;;;;;;;15.52;7.60;;;;;;;5.63;96.69;92569.25;6183933;23;20364;-77
2021/11/14 15:55:14;;;;;;;13.07;7.30;;;;;;;5.66;97.61;92572.38;6184952;23;20005;-78
2021/11/14 15:57:42;;;;;;;13.98;4.90;;;;;;;5.67;97.30;92568.75;6185646;23;20399;-79
2021/11/14 16:00:10;;;;;;;5.47;2.60;;;;;;;5.75;96.54;92573.47;6186498;23;20024;-79
2021/11/14 16:02:36;;;;;;;4.85;2.28;;;;;;;5.74;95.56;92577.88;6185514;23;20020;-77
2021/11/14 16:05:02;;;;;;;9.63;4.57;;;;;;;5.71;94.85;92573.16;6213210;23;20023;-79
2021/11/14 16:07:28;;;;;;;8.65;4.30;;;;;;;5.76;95.68;92575.00;6216090;23;20017;-78
2021/11/14 16:09:53;;;;;;;8.73;4.40;;;;;;;5.75;95.89;92571.63;6215039;23;20095;-78
2021/11/14 16:12:19;;;;;;;9.10;4.45;;;;;;;5.77;95.28;92584.38;6188693;23;20132;-78
2021/11/14 16:14:44;;;;;;;11.93;6.57;;;;;;;5.78;95.36;92583.31;6214138;23;20013;-77
2021/11/14 16:17:10;;;;;;;9.60;5.25;;;;;;;5.79;95.04;92580.50;6212654;23;20000;-79
2021/11/14 16:19:36;;;;;;;9.45;4.18;;;;;;;5.82;94.97;92589.59;6187247;23;20017;-79
2021/11/14 16:22:02;;;;;;;12.10;4.68;;;;;;;5.81;95.12;92588.81;6216244;23;20012;-78
2021/11/14 16:24:27;;;;;;;4.15;1.90;;;;;;;5.82;95.04;92599.97;6214988;23;20013;-79
2021/11/14 16:26:53;;;;;;;1.45;1.10;;;;;;;5.84;95.15;92606.47;6190076;23;20001;-78
2021/11/14 16:29:27;;;;;;;2.75;1.52;;;;;;;5.83;94.65;92606.72;6191289;23;20024;-79
2021/11/14 16:31:54;;;;;;;5.57;2.60;;;;;;;5.86;94.53;92610.66;6190209;23;20023;-79
2021/11/14 16:34:23;;;;;;;5.40;2.80;;;;;;;5.88;95.31;92616.34;6216364;23;20008;-79
2021/11/14 16:36:50;;;;;;;30.65;12.35;;;;;;;5.87;96.22;92623.38;6190312;23;20023;-79
2021/11/14 16:39:16;;;;;;;12.02;5.72;;;;;;;5.85;96.06;92615.03;6216662;23;20039;-79
2021/11/14 16:41:43;;;;;;;6.90;3.95;;;;;;;5.85;96.66;92615.03;6215811;23;20054;-78
2021/11/14 16:44:09;;;;;;;11.15;4.05;;;;;;;5.88;97.35;92621.56;6166246;23;20027;-79
2021/11/14 16:46:36;;;;;;;8.40;3.83;;;;;;;5.88;97.87;92624.16;6217702;23;20031;-80
2021/11/14 16:49:03;;;;;;;6.22;3.30;;;;;;;5.85;97.18;92622.84;6191612;23;20344;-80
2021/11/14 16:51:29;;;;;;;6.93;3.25;;;;;;;5.85;97.16;92633.22;6165695;23;20004;-80
2021/11/14 16:53:55;;;;;;;4.50;2.40;;;;;;;5.85;97.08;92630.63;6190272;23;20032;-80
2021/11/14 16:56:20;;;;;;;4.60;2.47;;;;;;;5.85;97.45;92638.44;6190164;23;20015;-79
2021/11/14 16:58:46;;;;;;;9.07;3.63;;;;;;;5.84;97.49;92642.84;6189562;23;20012;-78
2021/11/14 17:01:12;;;;;;;13.88;6.22;;;;;;;5.86;97.19;92642.59;6186540;23;20096;-79
2021/11/14 17:03:38;;;;;;;12.20;5.32;;;;;;;5.87;97.28;92641.56;6214528;23;20023;-80
2021/11/14 17:06:03;;;;;;;24.02;8.40;;;;;;;5.86;97.78;92641.84;6187812;23;20023;-77
2021/11/14 17:08:29;;;;;;;56.90;23.35;;;;;;;5.82;97.79;92646.75;6185303;23;20021;-78
2021/11/14 17:10:55;;;;;;;21.40;6.05;;;;;;;5.81;97.42;92650.38;6184765;23;20414;-76
2021/11/14 17:13:22;;;;;;;13.82;5.07;;;;;;;5.73;97.44;92650.84;6210500;23;20023;-77
2021/11/14 17:15:48;;;;;;;20.13;10.20;;;;;;;5.73;97.33;92653.44;6183176;23;20040;-77
2021/11/14 17:18:15;;;;;;;33.72;16.42;;;;;;;5.73;97.92;92658.66;6211998;23;20023;-77
2021/11/14 17:20:43;;;;;;;20.27;10.57;;;;;;;5.69;98.29;92660.19;6212539;23;20012;-78
2021/11/14 17:23:08;;;;;;;31.05;14.80;;;;;;;5.68;98.55;92667.19;6193122;23;20337;-78
2021/11/14 17:25:35;;;;;;;29.73;14.32;;;;;;;5.68;98.68;92662.00;6192223;23;20095;-79
2021/11/14 17:28:02;;;;;;;31.70;13.65;;;;;;;5.72;98.78;92672.66;6214227;23;20054;-76
2021/11/14 17:30:27;;;;;;;30.45;12.13;;;;;;;5.73;98.90;92663.84;6213110;23;20019;-79
2021/11/14 17:32:53;;;;;;;15.18;6.60;;;;;;;5.70;98.98;92662.53;6217443;23;20056;-78
2021/11/14 17:35:20;;;;;;;14.70;6.50;;;;;;;5.71;98.91;92676.28;6214654;23;20021;-78
2021/11/14 17:37:45;;;;;;;12.07;6.32;;;;;;;5.71;98.19;92671.09;6218132;23;20428;-80
2021/11/14 17:40:12;;;;;;;23.13;11.75;;;;;;;5.73;97.34;92663.84;6222084;23;20069;-78
2021/11/14 17:42:41;;;;;;;21.38;10.75;;;;;;;5.75;97.18;92669.56;6217391;23;20004;-81
2021/11/14 17:45:08;;;;;;;19.33;9.65;;;;;;;5.76;97.36;92668.53;6214797;23;20063;-78
2021/11/14 17:47:33;;;;;;;15.10;8.10;;;;;;;5.75;97.53;92672.16;6164158;23;20038;-80
2021/11/14 17:49:59;;;;;;;19.17;8.00;;;;;;;5.74;97.44;92670.59;6216451;23;20111;-77
2021/11/14 17:52:26;;;;;;;24.17;11.95;;;;;;;5.71;97.61;92681.50;6213973;23;20012;-76
2021/11/14 17:54:52;;;;;;;28.30;14.07;;;;;;;5.69;98.09;92684.31;6184996;23;20009;-76
2021/11/14 17:57:18;;;;;;;31.13;13.52;;;;;;;5.69;98.39;92691.34;6186714;23;20011;-77
2021/11/14 17:59:44;;;;;;;7.68;3.47;;;;;;;5.98;97.11;92692.56;6214177;23;20043;-77
2021/11/14 18:02:09;;;;;;;8.38;3.42;;;;;;;5.93;96.09;92689.16;6189915;23;20008;-80
2021/11/14 18:04:35;;;;;;;28.42;8.40;;;;;;;5.70;97.88;92687.72;6215461;23;20023;-80
2021/11/14 18:07:01;;;;;;;16.10;8.23;;;;;;;5.64;98.64;92690.28;6214330;23;20016;-80
2021/11/14 18:09:27;;;;;;;32.17;15.65;;;;;;;5.59;98.53;92692.84;6190145;23;20306;-76
2021/11/14 18:11:53;;;;;;;27.92;12.93;;;;;;;5.59;98.99;92686.88;6187537;23;20012;-83
2021/11/14 18:14:19;;;;;;;20.33;8.82;;;;;;;5.62;98.24;92692.34;6216240;23;20471;-80
2021/11/14 18:16:46;;;;;;;28.63;12.32;;;;;;;5.57;98.73;92684.53;6188848;23;20039;-80
2021/11/14 18:19:11;;;;;;;28.95;8.45;;;;;;;5.56;98.15;92690.75;6214550;23;20001;-80
2021/11/14 18:21:37;;;;;;;8.02;3.03;;;;;;;5.64;97.06;92694.69;6188809;23;20017;-81
2021/11/14 18:24:03;;;;;;;5.40;2.63;;;;;;;5.79;96.13;92699.22;6216127;23;20259;-80
2021/11/14 18:26:29;;;;;;;8.90;4.00;;;;;;;5.60;97.36;92701.41;6218501;23;20015;-82
2021/11/14 18:28:55;;;;;;;8.48;4.28;;;;;;;5.49;97.84;92692.75;6216139;23;20083;-77
2021/11/14 18:31:22;;;;;;;27.85;10.90;;;;;;;5.50;98.94;92704.72;6216608;23;20013;-81
2021/11/14 18:33:48;;;;;;;15.30;8.50;;;;;;;5.46;99.52;92706.25;6214007;23;20042;-78
2021/11/14 18:36:15;;;;;;;12.32;6.88;;;;;;;5.46;99.60;92708.84;6216600;23;20029;-79
2021/11/14 18:38:44;;;;;;;6.20;2.70;;;;;;;5.51;97.42;92713.28;6190337;23;20337;-78
2021/11/14 18:41:10;;;;;;;11.40;4.72;;;;;;;5.47;97.93;92720.00;6215845;23;20348;-78
2021/11/14 18:43:38;;;;;;;23.23;9.68;;;;;;;5.42;99.01;92712.97;6190457;23;20043;-79
2021/11/14 18:46:03;;;;;;;17.95;8.88;;;;;;;5.40;99.67;92720.22;6188521;23;20016;-79
2021/11/14 18:48:29;;;;;;;15.57;6.75;;;;;;;5.40;99.72;92728.00;6189700;23;20012;-79
2021/11/14 18:50:55;;;;;;;30.23;9.00;;;;;;;5.43;98.99;92735.31;6213788;23;20019;-78
2021/11/14 18:53:21;;;;;;;9.73;3.67;;;;;;;5.38;99.15;92735.25;6216434;23;20000;-79
2021/11/14 18:55:55;;;;;;;7.10;3.20;;;;;;;5.38;99.24;92748.25;6217917;23;20027;-81
2021/11/14 18:58:23;;;;;;;15.75;6.28;;;;;;;5.39;99.83;92742.03;6218788;23;20087;-81
2021/11/14 19:00:52;;;;;;;16.13;6.85;;;;;;;5.35;99.81;92746.16;6215709;23;20028;-80
2021/11/14 19:03:18;;;;;;;13.68;5.82;;;;;;;5.37;100.00;92744.09;6189295;23;20069;-80
2021/11/14 19:05:45;;;;;;;8.38;4.18;;;;;;;5.35;100.00;92741.72;6190614;23;20023;-78
2021/11/14 19:08:10;;;;;;;9.65;3.80;;;;;;;5.36;100.00;92742.53;6188517;23;20032;-79
2021/11/14 19:10:36;;;;;;;11.35;6.18;;;;;;;5.36;100.00;92753.69;6188459;23;20509;-80
2021/11/14 19:13:03;;;;;;;14.10;6.35;;;;;;;5.37;100.00;92746.69;6215202;23;20008;-80
2021/11/14 19:15:30;;;;;;;35.15;5.93;;;;;;;5.36;100.00;92751.09;6189589;23;20004;-80
2021/11/14 19:17:58;;;;;;;19.42;7.18;;;;;;;5.37;100.00;92749.28;6212182;23;20033;-78
2021/11/14 19:20:26;;;;;;;21.50;5.90;;;;;;;5.34;100.00;92744.59;6214399;23;20321;-79
2021/11/14 19:22:53;;;;;;;37.50;7.07;;;;;;;5.33;100.00;92748.22;6212227;23;20036;-78
2021/11/14 19:25:20;;;;;;;19.25;7.85;;;;;;;5.31;100.00;92755.44;6185424;23;20005;-79
2021/11/14 19:27:47;;;;;;;19.63;5.68;;;;;;;5.31;100.00;92760.66;6215409;23;20044;-80
2021/11/14 19:30:18;;;;;;;13.20;6.03;;;;;;;5.29;100.00;92763.50;6190715;23;20001;-79
2021/11/14 19:32:46;;;;;;;34.85;13.57;;;;;;;5.32;100.00;92764.81;6213859;23;20078;-81
2021/11/14 19:35:12;;;;;;;20.27;8.98;;;;;;;5.36;100.00;92758.13;6188590;23;20005;-78
2021/11/14 19:37:38;;;;;;;32.03;11.32;;;;;;;5.37;100.00;92770.06;6213550;23;20091;-82
2021/11/14 19:40:05;;;;;;;32.78;13.25;;;;;;;5.35;100.00;92770.28;6214005;23;20199;-79
2021/11/14 19:42:31;;;;;;;10.25;4.25;;;;;;;5.37;100.00;92777.84;6215175;23;20066;-80
2021/11/14 19:44:56;;;;;;;5.32;2.47;;;;;;;5.41;99.38;92778.91;6216062;23;20008;-80
2021/11/14 19:47:22;;;;;;;4.28;2.40;;;;;;;5.38;99.54;92782.00;6216023;23;20526;-80
2021/11/14 19:49:49;;;;;;;4.45;2.08;;;;;;;5.32;99.45;92794.16;6212195;23;20332;-77
2021/11/14 19:52:14;;;;;;;4.10;2.08;;;;;;;5.32;99.74;92794.16;6213190;23;20017;-80
2021/11/14 19:54:42;;;;;;;6.80;3.05;;;;;;;5.22;100.00;92789.66;6185814;23;20091;-80
2021/11/14 19:57:10;;;;;;;10.20;5.10;;;;;;;5.22;100.00;92781.88;6214499;23;20468;-80
2021/11/14 19:59:36;;;;;;;15.15;7.30;;;;;;;5.23;100.00;92774.88;6211002;23;20375;-79
2021/11/14 20:02:03;;;;;;;17.25;7.40;;;;;;;5.24;100.00;92781.63;6163229;23;20087;-77
2021/11/14 20:04:31;;;;;;;8.00;4.30;;;;;;;5.22;100.00;92768.91;6215883;23;20395;-79
2021/11/14 20:07:02;;;;;;;12.35;3.97;;;;;;;5.22;100.00;92768.91;6179335;23;20044;-79
2021/11/14 20:09:32;;;;;;;8.95;3.45;;;;;;;5.22;100.00;92776.69;6204991;23;20013;-78
2021/11/14 20:12:00;;;;;;;10.18;3.85;;;;;;;5.26;100.00;92791.75;6183851;23;20036;-79
2021/11/14 20:14:25;;;;;;;8.15;3.60;;;;;;;5.25;100.00;92787.59;6182374;23;20306;-79
2021/11/14 20:16:51;;;;;;;6.30;3.53;;;;;;;5.28;100.00;92787.09;6180744;23;20043;-77
2021/11/14 20:19:18;;;;;;;10.73;6.20;;;;;;;5.26;100.00;92778.78;6183835;23;20083;-77
2021/11/14 20:21:44;;;;;;;11.10;5.80;;;;;;;5.27;100.00;92790.72;6182592;23;20433;-77
2021/11/14 20:24:10;;;;;;;10.68;5.68;;;;;;;5.24;100.00;92786.03;6204493;23;20021;-78
2021/11/14 20:26:36;;;;;;;18.27;8.52;;;;;;;5.25;100.00;92790.97;6206069;23;20052;-79
2021/11/14 20:29:03;;;;;;;10.30;4.88;;;;;;;5.31;100.00;92802.19;6182505;23;20013;-78
2021/11/14 20:31:28;;;;;;;18.20;8.88;;;;;;;5.28;100.00;92797.50;6179354;23;20000;-78
2021/11/14 20:33:56;;;;;;;8.07;3.60;;;;;;;5.26;100.00;92804.72;6201727;23;20009;-78
2021/11/14 20:36:22;;;;;;;6.53;3.60;;;;;;;5.30;100.00;92795.44;6179342;23;20000;-80
2021/11/14 20:38:47;;;;;;;6.40;3.00;;;;;;;5.30;100.00;92798.81;6181924;23;20461;-79
2021/11/14 20:41:13;;;;;;;8.80;3.88;;;;;;;5.31;100.00;92802.97;6181634;23;20008;-80
2021/11/14 20:43:39;;;;;;;5.70;2.75;;;;;;;5.33;100.00;92794.94;6183613;23;20460;-80
2021/11/14 20:46:07;;;;;;;14.60;5.55;;;;;;;5.32;100.00;92795.97;6177445;23;20005;-80
2021/11/14 20:48:34;;;;;;;10.60;5.22;;;;;;;5.31;100.00;92797.00;6182768;23;20041;-78
2021/11/14 20:51:03;;;;;;;7.82;3.08;;;;;;;5.32;100.00;92796.75;6181502;23;20008;-80
2021/11/14 20:53:34;;;;;;;7.22;3.47;;;;;;;5.33;100.00;92806.09;6183680;23;20012;-80
2021/11/14 20:56:00;;;;;;;5.63;3.05;;;;;;;5.34;99.54;92807.69;6183000;23;20352;-80
2021/11/14 20:58:26;;;;;;;14.13;3.42;;;;;;;5.34;99.94;92807.69;6185309;23;20005;-78
2021/11/14 21:00:52;;;;;;;6.03;2.95;;;;;;;5.32;99.94;92799.34;6181914;23;20061;-79
2021/11/14 21:03:18;;;;;;;5.07;2.47;;;;;;;5.33;100.00;92802.72;6183084;23;20025;-80
2021/11/14 21:05:44;;;;;;;3.80;2.08;;;;;;;5.32;99.68;92788.97;6195866;23;20020;-80
2021/11/14 21:08:10;;;;;;;5.13;2.70;;;;;;;5.34;99.91;92801.72;6213281;23;20021;-79
2021/11/14 21:10:37;;;;;;;5.05;2.50;;;;;;;5.39;99.53;92796.56;6215407;23;20015;-80
2021/11/14 21:13:04;;;;;;;3.33;1.83;;;;;;;5.40;99.75;92800.69;6188804;23;20078;-79
2021/11/14 21:15:31;;;;;;;5.22;2.80;;;;;;;5.42;99.82;92794.22;6214912;23;20051;-79
2021/11/14 21:17:56;;;;;;;4.80;2.65;;;;;;;5.40;99.37;92780.75;6215646;23;20005;-80
2021/11/14 21:20:26;;;;;;;7.15;2.80;;;;;;;5.42;99.46;92767.50;6163612;23;20044;-79
2021/11/14 21:22:53;;;;;;;3.75;2.03;;;;;;;5.39;99.58;92778.38;6214425;23;20004;-77
2021/11/14 21:25:19;;;;;;;5.03;2.20;;;;;;;5.38;99.40;92782.00;6182872;23;20042;-79
2021/11/14 21:27:45;;;;;;;3.67;2.20;;;;;;;5.36;100.00;92794.47;6212724;23;20007;-79
2021/11/14 21:30:12;;;;;;;4.22;1.50;;;;;;;5.26;100.00;92800.31;6212393;23;20012;-79
2021/11/14 21:32:47;;;;;;;2.78;1.48;;;;;;;5.25;100.00;92800.59;6213607;23;20004;-80
2021/11/14 21:40:30;;;;;;;2.05;1.40;;;;;;;5.10;100.00;92809.78;6213891;23;20017;-79
2021/11/14 21:42:57;;;;;;;2.75;1.50;;;;;;;5.08;100.00;92814.41;6214771;23;20009;-79
2021/11/14 21:45:23;;;;;;;2.72;1.60;;;;;;;5.08;100.00;92817.00;6216139;23;20402;-79
2021/11/14 21:47:50;;;;;;;2.60;1.42;;;;;;;5.09;100.00;92823.78;6216662;23;20019;-80
2021/11/14 21:50:19;;;;;;;3.78;1.52;;;;;;;5.10;100.00;92822.75;6189284;23;20035;-79
2021/11/14 21:52:45;;;;;;;2.95;1.60;;;;;;;5.12;100.00;92825.88;6189260;23;20451;-79
2021/11/14 21:55:12;;;;;;;4.13;1.90;;;;;;;5.16;100.00;92826.19;6164162;23;20001;-80
2021/11/14 21:57:38;;;;;;;3.80;2.03;;;;;;;5.15;100.00;92825.38;6188156;23;20381;-80
2021/11/14 22:42:15;;;;;;;;;;;;;;;;;;;;;
2021/11/14 23:23:03;;;;;;;;;;;;;;;;;;;;;
